createdAt,value
2016-07-20T00:00:04.872Z,21.7
2016-07-20T00:00:14.868Z,21.7
2016-07-20T00:00:24.865Z,21.7
2016-07-20T00:00:34.861Z,21.7
2016-07-20T00:00:44.857Z,21.7
2016-07-20T00:00:54.852Z,21.6
2016-07-20T00:01:04.849Z,21.6
2016-07-20T00:01:14.844Z,21.6
2016-07-20T00:01:24.840Z,21.7
2016-07-20T00:01:34.835Z,21.7
2016-07-20T00:01:44.830Z,21.7
2016-07-20T00:01:54.826Z,21.7
2016-07-20T00:02:04.823Z,21.7
2016-07-20T00:02:14.817Z,21.7
2016-07-20T00:02:24.813Z,21.6
2016-07-20T00:02:34.809Z,21.7
2016-07-20T00:02:44.806Z,21.7
2016-07-20T00:02:54.801Z,21.7
2016-07-20T00:03:04.796Z,21.7
2016-07-20T00:03:14.791Z,21.7
2016-07-20T00:03:24.788Z,21.7
2016-07-20T00:03:34.783Z,21.7
2016-07-20T00:03:44.780Z,21.7
2016-07-20T00:03:54.774Z,21.7
2016-07-20T00:04:04.770Z,21.6
2016-07-20T00:04:14.768Z,21.7
2016-07-20T00:04:24.763Z,21.7
2016-07-20T00:04:34.758Z,21.6
2016-07-20T00:04:44.755Z,21.7
2016-07-20T00:04:54.749Z,21.6
2016-07-20T00:05:04.745Z,21.7
2016-07-20T00:05:14.740Z,21.7
2016-07-20T00:05:24.737Z,21.7
2016-07-20T00:05:34.741Z,21.6
2016-07-20T00:05:44.728Z,21.7
2016-07-20T00:05:54.723Z,21.7
2016-07-20T00:06:04.721Z,21.7
2016-07-20T00:06:14.714Z,21.6
2016-07-20T00:06:24.711Z,21.7
2016-07-20T00:06:34.706Z,21.7
2016-07-20T00:06:44.700Z,21.7
2016-07-20T00:06:54.698Z,21.6
2016-07-20T00:07:04.691Z,21.6
2016-07-20T00:07:14.688Z,21.7
2016-07-20T00:07:24.686Z,21.6
2016-07-20T00:07:34.679Z,21.7
2016-07-20T00:07:44.676Z,21.6
2016-07-20T00:07:54.672Z,21.6
2016-07-20T00:08:04.667Z,21.7
2016-07-20T00:08:14.670Z,21.7
2016-07-20T00:08:24.658Z,21.6
2016-07-20T00:08:34.654Z,21.6
2016-07-20T00:08:44.652Z,21.6
2016-07-20T00:08:54.646Z,21.6
2016-07-20T00:09:04.643Z,21.6
2016-07-20T00:09:14.637Z,21.7
2016-07-20T00:09:24.634Z,21.6
2016-07-20T00:09:34.630Z,21.6
2016-07-20T00:09:44.624Z,21.6
2016-07-20T00:09:54.621Z,21.6
2016-07-20T00:10:04.617Z,21.7
2016-07-20T00:10:14.612Z,21.5
2016-07-20T00:10:24.608Z,21.6
2016-07-20T00:10:34.603Z,21.6
2016-07-20T00:10:44.599Z,21.6
2016-07-20T00:10:54.594Z,21.5
2016-07-20T00:11:04.589Z,21.6
2016-07-20T00:11:14.587Z,21.5
2016-07-20T00:11:24.583Z,21.6
2016-07-20T00:11:34.577Z,21.5
2016-07-20T00:11:44.573Z,21.6
2016-07-20T00:11:54.568Z,21.6
2016-07-20T00:12:04.564Z,21.5
2016-07-20T00:12:14.559Z,21.6
2016-07-20T00:12:24.555Z,21.6
2016-07-20T00:12:34.550Z,21.6
2016-07-20T00:12:44.547Z,21.6
2016-07-20T00:12:54.543Z,21.5
2016-07-20T00:13:04.539Z,21.6
2016-07-20T00:13:14.534Z,21.6
2016-07-20T00:13:24.530Z,21.6
2016-07-20T00:13:34.525Z,21.5
2016-07-20T00:13:44.521Z,21.6
2016-07-20T00:13:54.517Z,21.5
2016-07-20T00:14:04.513Z,21.6
2016-07-20T00:14:14.507Z,21.6
2016-07-20T00:14:24.503Z,21.6
2016-07-20T00:14:34.498Z,21.6
2016-07-20T00:14:44.496Z,21.7
2016-07-20T00:14:54.491Z,21.6
2016-07-20T00:15:04.486Z,21.5
2016-07-20T00:15:14.481Z,21.6
2016-07-20T00:15:24.478Z,21.6
2016-07-20T00:15:34.472Z,21.5
2016-07-20T00:15:44.470Z,21.6
2016-07-20T00:15:54.466Z,21.5
2016-07-20T00:16:04.461Z,21.5
2016-07-20T00:16:14.457Z,21.5
2016-07-20T00:16:24.450Z,21.6
2016-07-20T00:16:34.448Z,21.5
2016-07-20T00:16:44.443Z,21.6
2016-07-20T00:16:54.439Z,21.6
2016-07-20T00:17:04.436Z,21.6
2016-07-20T00:17:14.429Z,21.5
2016-07-20T00:17:24.426Z,21.6
2016-07-20T00:17:34.421Z,21.6
2016-07-20T00:17:44.417Z,21.6
2016-07-20T00:17:54.413Z,21.5
2016-07-20T00:18:04.408Z,21.6
2016-07-20T00:18:14.406Z,21.5
2016-07-20T00:18:24.400Z,21.6
2016-07-20T00:18:34.396Z,21.6
2016-07-20T00:18:44.392Z,21.6
2016-07-20T00:18:54.386Z,21.6
2016-07-20T00:19:04.382Z,21.5
2016-07-20T00:19:14.378Z,21.5
2016-07-20T00:19:24.375Z,21.6
2016-07-20T00:19:34.370Z,21.5
2016-07-20T00:19:44.365Z,21.5
2016-07-20T00:19:54.362Z,21.5
2016-07-20T00:20:04.357Z,21.6
2016-07-20T00:20:14.354Z,21.5
2016-07-20T00:20:24.347Z,21.5
2016-07-20T00:20:34.344Z,21.5
2016-07-20T00:20:44.339Z,21.5
2016-07-20T00:20:54.336Z,21.5
2016-07-20T00:21:04.332Z,21.5
2016-07-20T00:21:14.329Z,21.6
2016-07-20T00:21:24.325Z,21.5
2016-07-20T00:21:34.320Z,21.5
2016-07-20T00:21:44.312Z,21.5
2016-07-20T00:21:54.308Z,21.5
2016-07-20T00:22:04.306Z,21.5
2016-07-20T00:22:14.299Z,21.6
2016-07-20T00:22:24.296Z,21.5
2016-07-20T00:22:34.294Z,21.5
2016-07-20T00:22:44.287Z,21.6
2016-07-20T00:22:54.284Z,21.5
2016-07-20T00:23:04.280Z,21.5
2016-07-20T00:23:14.275Z,21.6
2016-07-20T00:23:24.271Z,21.5
2016-07-20T00:23:34.267Z,21.5
2016-07-20T00:23:44.262Z,21.5
2016-07-20T00:23:54.259Z,21.5
2016-07-20T00:24:04.254Z,21.5
2016-07-20T00:24:14.249Z,21.5
2016-07-20T00:24:24.244Z,21.4
2016-07-20T00:24:34.242Z,21.5
2016-07-20T00:24:44.238Z,21.6
2016-07-20T00:24:54.233Z,21.5
2016-07-20T00:25:04.230Z,21.5
2016-07-20T00:25:14.224Z,21.5
2016-07-20T00:25:24.219Z,21.5
2016-07-20T00:25:34.214Z,21.5
2016-07-20T00:25:44.213Z,21.5
2016-07-20T00:25:54.206Z,21.5
2016-07-20T00:26:04.202Z,21.5
2016-07-20T00:26:14.204Z,21.5
2016-07-20T00:26:24.194Z,21.5
2016-07-20T00:26:34.190Z,21.4
2016-07-20T00:26:44.187Z,21.5
2016-07-20T00:26:54.181Z,21.5
2016-07-20T00:27:04.177Z,21.5
2016-07-20T00:27:14.173Z,21.4
2016-07-20T00:27:24.169Z,21.5
2016-07-20T00:27:34.165Z,21.5
2016-07-20T00:27:44.161Z,21.4
2016-07-20T00:27:54.157Z,21.5
2016-07-20T00:28:04.151Z,21.5
2016-07-20T00:28:14.147Z,21.5
2016-07-20T00:28:24.141Z,21.4
2016-07-20T00:28:34.137Z,21.5
2016-07-20T00:28:44.134Z,21.4
2016-07-20T00:28:54.129Z,21.5
2016-07-20T00:29:04.128Z,21.4
2016-07-20T00:29:14.122Z,21.4
2016-07-20T00:29:24.117Z,21.4
2016-07-20T00:29:34.113Z,21.4
2016-07-20T00:29:44.107Z,21.4
2016-07-20T00:29:54.105Z,21.4
2016-07-20T00:30:04.100Z,21.4
2016-07-20T00:30:14.101Z,21.5
2016-07-20T00:30:24.094Z,21.5
2016-07-20T00:30:34.088Z,21.4
2016-07-20T00:30:44.085Z,21.5
2016-07-20T00:30:54.079Z,21.4
2016-07-20T00:31:04.076Z,21.4
2016-07-20T00:31:14.072Z,21.5
2016-07-20T00:31:24.068Z,21.5
2016-07-20T00:31:34.060Z,21.5
2016-07-20T00:31:44.055Z,21.4
2016-07-20T00:31:54.054Z,21.5
2016-07-20T00:32:04.050Z,21.4
2016-07-20T00:32:14.044Z,21.5
2016-07-20T00:32:24.040Z,21.5
2016-07-20T00:32:34.035Z,21.5
2016-07-20T00:32:44.030Z,21.4
2016-07-20T00:32:54.026Z,21.5
2016-07-20T00:33:04.020Z,21.5
2016-07-20T00:33:14.017Z,21.5
2016-07-20T00:33:24.012Z,21.5
2016-07-20T00:33:34.009Z,21.5
2016-07-20T00:33:44.004Z,21.4
2016-07-20T00:33:54.000Z,21.4
2016-07-20T00:34:03.998Z,21.5
2016-07-20T00:34:13.993Z,21.4
2016-07-20T00:34:23.989Z,21.5
2016-07-20T00:34:33.984Z,21.5
2016-07-20T00:34:43.980Z,21.5
2016-07-20T00:34:53.976Z,21.4
2016-07-20T00:35:03.972Z,21.4
2016-07-20T00:35:13.967Z,21.5
2016-07-20T00:35:23.980Z,21.5
2016-07-20T00:35:33.959Z,21.5
2016-07-20T00:35:43.954Z,21.4
2016-07-20T00:35:53.951Z,21.4
2016-07-20T00:36:03.947Z,21.4
2016-07-20T00:36:13.942Z,21.5
2016-07-20T00:36:23.940Z,21.5
2016-07-20T00:36:33.934Z,21.4
2016-07-20T00:36:43.930Z,21.4
2016-07-20T00:36:53.931Z,21.4
2016-07-20T00:37:03.919Z,21.4
2016-07-20T00:37:13.917Z,21.4
2016-07-20T00:37:23.912Z,21.4
2016-07-20T00:37:33.908Z,21.4
2016-07-20T00:37:43.901Z,21.4
2016-07-20T00:37:53.899Z,21.3
2016-07-20T00:38:03.896Z,21.3
2016-07-20T00:38:13.891Z,21.4
2016-07-20T00:38:23.885Z,21.5
2016-07-20T00:38:33.883Z,21.4
2016-07-20T00:38:43.878Z,21.4
2016-07-20T00:38:53.872Z,21.4
2016-07-20T00:39:03.868Z,21.4
2016-07-20T00:39:13.865Z,21.5
2016-07-20T00:39:23.860Z,21.4
2016-07-20T00:39:33.856Z,21.4
2016-07-20T00:39:43.849Z,21.4
2016-07-20T00:39:53.845Z,21.4
2016-07-20T00:40:03.840Z,21.3
2016-07-20T00:40:13.837Z,21.4
2016-07-20T00:40:23.832Z,21.4
2016-07-20T00:40:33.829Z,21.4
2016-07-20T00:40:43.826Z,21.4
2016-07-20T00:40:53.820Z,21.4
2016-07-20T00:41:03.818Z,21.4
2016-07-20T00:41:13.811Z,21.4
2016-07-20T00:41:23.808Z,21.4
2016-07-20T00:41:33.805Z,21.3
2016-07-20T00:41:43.799Z,21.3
2016-07-20T00:41:53.796Z,21.4
2016-07-20T00:42:03.791Z,21.4
2016-07-20T00:42:13.786Z,21.3
2016-07-20T00:42:23.781Z,21.4
2016-07-20T00:42:33.781Z,21.4
2016-07-20T00:42:43.773Z,21.4
2016-07-20T00:42:53.770Z,21.3
2016-07-20T00:43:03.766Z,21.4
2016-07-20T00:43:13.760Z,21.4
2016-07-20T00:43:23.757Z,21.4
2016-07-20T00:43:33.751Z,21.4
2016-07-20T00:43:43.753Z,21.4
2016-07-20T00:43:53.744Z,21.4
2016-07-20T00:44:03.739Z,21.5
2016-07-20T00:44:13.734Z,21.4
2016-07-20T00:44:23.730Z,21.3
2016-07-20T00:44:33.726Z,21.4
2016-07-20T00:44:43.723Z,21.4
2016-07-20T00:44:53.718Z,21.4
2016-07-20T00:45:03.714Z,21.3
2016-07-20T00:45:13.709Z,21.4
2016-07-20T00:45:23.703Z,21.4
2016-07-20T00:45:33.701Z,21.3
2016-07-20T00:45:43.697Z,21.4
2016-07-20T00:45:53.692Z,21.4
2016-07-20T00:46:03.687Z,21.4
2016-07-20T00:46:13.684Z,21.4
2016-07-20T00:46:23.680Z,21.3
2016-07-20T00:46:33.676Z,21.3
2016-07-20T00:46:43.671Z,21.3
2016-07-20T00:46:53.666Z,21.4
2016-07-20T00:47:03.660Z,21.4
2016-07-20T00:47:13.657Z,21.4
2016-07-20T00:47:23.654Z,21.3
2016-07-20T00:47:33.648Z,21.3
2016-07-20T00:47:43.644Z,21.3
2016-07-20T00:47:53.640Z,21.4
2016-07-20T00:48:03.635Z,21.4
2016-07-20T00:48:13.631Z,21.3
2016-07-20T00:48:23.626Z,21.3
2016-07-20T00:48:33.622Z,21.3
2016-07-20T00:48:43.618Z,21.3
2016-07-20T00:48:53.614Z,21.4
2016-07-20T00:49:03.609Z,21.3
2016-07-20T00:49:13.607Z,21.3
2016-07-20T00:49:23.601Z,21.3
2016-07-20T00:49:33.597Z,21.4
2016-07-20T00:49:43.591Z,21.4
2016-07-20T00:49:53.587Z,21.4
2016-07-20T00:50:03.583Z,21.3
2016-07-20T00:50:13.579Z,21.4
2016-07-20T00:50:23.576Z,21.4
2016-07-20T00:50:33.571Z,21.4
2016-07-20T00:50:43.578Z,21.4
2016-07-20T00:50:53.562Z,21.4
2016-07-20T00:51:03.558Z,21.3
2016-07-20T00:51:13.553Z,21.3
2016-07-20T00:51:23.548Z,21.3
2016-07-20T00:51:33.544Z,21.3
2016-07-20T00:51:43.543Z,21.4
2016-07-20T00:51:53.536Z,21.4
2016-07-20T00:52:03.531Z,21.3
2016-07-20T00:52:13.527Z,21.4
2016-07-20T00:52:23.522Z,21.3
2016-07-20T00:52:33.519Z,21.3
2016-07-20T00:52:43.514Z,21.3
2016-07-20T00:52:53.511Z,21.3
2016-07-20T00:53:03.505Z,21.3
2016-07-20T00:53:13.502Z,21.3
2016-07-20T00:53:23.498Z,21.3
2016-07-20T00:53:33.492Z,21.4
2016-07-20T00:53:43.489Z,21.3
2016-07-20T00:53:53.485Z,21.4
2016-07-20T00:54:03.483Z,21.3
2016-07-20T00:54:13.475Z,21.3
2016-07-20T00:54:23.472Z,21.3
2016-07-20T00:54:33.469Z,21.3
2016-07-20T00:54:43.463Z,21.3
2016-07-20T00:54:53.458Z,21.3
2016-07-20T00:55:03.453Z,21.3
2016-07-20T00:55:13.455Z,21.3
2016-07-20T00:55:23.445Z,21.1
2016-07-20T00:55:33.441Z,21.3
2016-07-20T00:55:43.436Z,21.3
2016-07-20T00:55:53.431Z,21.3
2016-07-20T00:56:03.426Z,21.1
2016-07-20T00:56:13.423Z,21.3
2016-07-20T00:56:23.418Z,21.2
2016-07-20T00:56:33.414Z,21.2
2016-07-20T00:56:43.409Z,21.1
2016-07-20T00:56:53.405Z,21.2
2016-07-20T00:57:03.401Z,21.1
2016-07-20T00:57:13.396Z,21.2
2016-07-20T00:57:23.392Z,21.1
2016-07-20T00:57:33.389Z,21.2
2016-07-20T00:57:43.384Z,21.2
2016-07-20T00:57:53.380Z,21.2
2016-07-20T00:58:03.375Z,21.1
2016-07-20T00:58:13.370Z,21.2
2016-07-20T00:58:23.366Z,21.2
2016-07-20T00:58:33.362Z,21.2
2016-07-20T00:58:43.358Z,21.2
2016-07-20T00:58:53.353Z,21.2
2016-07-20T00:59:03.349Z,21.2
2016-07-20T00:59:13.345Z,21.2
2016-07-20T00:59:23.341Z,21.2
2016-07-20T00:59:33.336Z,21.1
2016-07-20T00:59:43.334Z,21.2
2016-07-20T00:59:53.329Z,21.2
2016-07-20T01:00:03.323Z,21.2
2016-07-20T01:00:13.320Z,21.2
2016-07-20T01:00:23.315Z,21.3
2016-07-20T01:00:33.311Z,21.2
2016-07-20T01:00:43.307Z,21.2
2016-07-20T01:00:53.302Z,21.3
2016-07-20T01:01:03.299Z,21.3
2016-07-20T01:01:13.295Z,21.2
2016-07-20T01:01:23.290Z,21.1
2016-07-20T01:01:33.285Z,21.3
2016-07-20T01:01:43.279Z,21.2
2016-07-20T01:01:53.276Z,21.1
2016-07-20T01:02:03.272Z,21.2
2016-07-20T01:02:13.267Z,21.2
2016-07-20T01:02:23.262Z,21.1
2016-07-20T01:02:33.260Z,21.1
2016-07-20T01:02:43.254Z,21.1
2016-07-20T01:02:53.251Z,21.1
2016-07-20T01:03:03.244Z,21.2
2016-07-20T01:03:13.242Z,21.1
2016-07-20T01:03:23.236Z,21.1
2016-07-20T01:03:33.233Z,21.2
2016-07-20T01:03:43.228Z,21.1
2016-07-20T01:03:53.225Z,21.1
2016-07-20T01:04:03.219Z,21.2
2016-07-20T01:04:13.216Z,21.2
2016-07-20T01:04:23.209Z,21.2
2016-07-20T01:04:33.206Z,21.1
2016-07-20T01:04:43.203Z,21.2
2016-07-20T01:04:53.196Z,21.1
2016-07-20T01:05:03.192Z,21.2
2016-07-20T01:05:13.188Z,21.2
2016-07-20T01:05:23.185Z,21.1
2016-07-20T01:05:33.182Z,21.2
2016-07-20T01:05:43.175Z,21.1
2016-07-20T01:05:53.172Z,21.1
2016-07-20T01:06:03.167Z,21.1
2016-07-20T01:06:13.164Z,21.1
2016-07-20T01:06:23.158Z,21.1
2016-07-20T01:06:33.153Z,21.1
2016-07-20T01:06:43.150Z,21.1
2016-07-20T01:06:53.145Z,21.1
2016-07-20T01:07:03.142Z,21.2
2016-07-20T01:07:13.137Z,21.1
2016-07-20T01:07:23.134Z,21.1
2016-07-20T01:07:33.128Z,21.1
2016-07-20T01:07:43.125Z,21.2
2016-07-20T01:07:53.120Z,21.2
2016-07-20T01:08:03.115Z,21.1
2016-07-20T01:08:13.111Z,21.2
2016-07-20T01:08:23.105Z,21.1
2016-07-20T01:08:33.103Z,21.1
2016-07-20T01:08:43.099Z,21.1
2016-07-20T01:08:53.093Z,21.1
2016-07-20T01:09:03.091Z,21.2
2016-07-20T01:09:13.087Z,21.1
2016-07-20T01:09:23.081Z,21.1
2016-07-20T01:09:33.077Z,21.2
2016-07-20T01:09:43.072Z,21.2
2016-07-20T01:09:53.068Z,21.1
2016-07-20T01:10:03.065Z,21.2
2016-07-20T01:10:13.059Z,21.1
2016-07-20T01:10:23.054Z,21.1
2016-07-20T01:10:33.052Z,21.1
2016-07-20T01:10:43.046Z,21.2
2016-07-20T01:10:53.041Z,21.2
2016-07-20T01:11:03.037Z,21.2
2016-07-20T01:11:13.032Z,21
2016-07-20T01:11:23.028Z,21.2
2016-07-20T01:11:33.024Z,21.1
2016-07-20T01:11:43.018Z,21.2
2016-07-20T01:11:53.017Z,21.1
2016-07-20T01:12:03.012Z,21.2
2016-07-20T01:12:13.006Z,21.2
2016-07-20T01:12:23.002Z,21.1
2016-07-20T01:12:32.997Z,21.1
2016-07-20T01:12:42.993Z,21.1
2016-07-20T01:12:52.994Z,21.1
2016-07-20T01:13:02.984Z,21.1
2016-07-20T01:13:12.981Z,21.2
2016-07-20T01:13:22.976Z,21.1
2016-07-20T01:13:32.972Z,21.1
2016-07-20T01:13:42.967Z,21.1
2016-07-20T01:13:52.964Z,21.1
2016-07-20T01:14:02.960Z,21.1
2016-07-20T01:14:12.955Z,21.1
2016-07-20T01:14:22.949Z,21.1
2016-07-20T01:14:32.947Z,21.1
2016-07-20T01:14:42.941Z,21.2
2016-07-20T01:14:52.937Z,21.2
2016-07-20T01:15:02.932Z,21.1
2016-07-20T01:15:12.929Z,21.2
2016-07-20T01:15:22.928Z,21.1
2016-07-20T01:15:32.920Z,21.1
2016-07-20T01:15:42.915Z,21.1
2016-07-20T01:15:52.911Z,21.1
2016-07-20T01:16:02.907Z,21.2
2016-07-20T01:16:12.904Z,21.1
2016-07-20T01:16:22.898Z,21.1
2016-07-20T01:16:32.894Z,21.1
2016-07-20T01:16:42.891Z,21.1
2016-07-20T01:16:52.886Z,21.1
2016-07-20T01:17:02.881Z,21.1
2016-07-20T01:17:12.878Z,21.1
2016-07-20T01:17:22.872Z,21.1
2016-07-20T01:17:32.867Z,21.1
2016-07-20T01:17:42.864Z,21.1
2016-07-20T01:17:52.859Z,21.1
2016-07-20T01:18:02.857Z,21.1
2016-07-20T01:18:12.850Z,21.1
2016-07-20T01:18:22.848Z,21.1
2016-07-20T01:18:32.841Z,21.1
2016-07-20T01:18:42.838Z,21.1
2016-07-20T01:18:52.832Z,21.1
2016-07-20T01:19:02.828Z,21.2
2016-07-20T01:19:12.825Z,21.1
2016-07-20T01:19:22.821Z,21.1
2016-07-20T01:19:32.815Z,21.1
2016-07-20T01:19:42.811Z,21.1
2016-07-20T01:19:52.807Z,21.2
2016-07-20T01:20:02.802Z,21.1
2016-07-20T01:20:12.800Z,21.1
2016-07-20T01:20:22.792Z,21.1
2016-07-20T01:20:32.790Z,21.1
2016-07-20T01:20:42.785Z,21.2
2016-07-20T01:20:52.780Z,21.2
2016-07-20T01:21:02.780Z,21.2
2016-07-20T01:21:12.772Z,21.1
2016-07-20T01:21:22.767Z,21.2
2016-07-20T01:21:32.764Z,21.1
2016-07-20T01:21:42.758Z,21.2
2016-07-20T01:21:52.755Z,21.1
2016-07-20T01:22:02.751Z,21.1
2016-07-20T01:22:12.746Z,21.1
2016-07-20T01:22:22.742Z,21.1
2016-07-20T01:22:32.739Z,21.1
2016-07-20T01:22:42.734Z,21.2
2016-07-20T01:22:52.728Z,21.2
2016-07-20T01:23:02.725Z,21.1
2016-07-20T01:23:12.720Z,21.1
2016-07-20T01:23:22.717Z,21.1
2016-07-20T01:23:32.714Z,21.1
2016-07-20T01:23:42.708Z,21.1
2016-07-20T01:23:52.704Z,21.1
2016-07-20T01:24:02.699Z,21.2
2016-07-20T01:24:12.695Z,21.1
2016-07-20T01:24:22.690Z,21.1
2016-07-20T01:24:32.687Z,21.2
2016-07-20T01:24:42.681Z,21.1
2016-07-20T01:24:52.677Z,21.1
2016-07-20T01:25:02.672Z,21.1
2016-07-20T01:25:12.669Z,21.1
2016-07-20T01:25:22.665Z,21.1
2016-07-20T01:25:32.660Z,21.1
2016-07-20T01:25:42.654Z,21.1
2016-07-20T01:25:52.651Z,21.1
2016-07-20T01:26:02.647Z,21.1
2016-07-20T01:26:12.642Z,21.1
2016-07-20T01:26:22.639Z,21.1
2016-07-20T01:26:32.635Z,21.1
2016-07-20T01:26:42.629Z,21.1
2016-07-20T01:26:52.624Z,21.1
2016-07-20T01:27:02.621Z,21.1
2016-07-20T01:27:12.616Z,21.1
2016-07-20T01:27:22.612Z,21.1
2016-07-20T01:27:32.608Z,21.1
2016-07-20T01:27:42.602Z,21.1
2016-07-20T01:27:52.600Z,21.1
2016-07-20T01:28:02.594Z,21.1
2016-07-20T01:28:12.589Z,21.1
2016-07-20T01:28:22.584Z,21.1
2016-07-20T01:28:32.582Z,21.1
2016-07-20T01:28:42.578Z,21.1
2016-07-20T01:28:52.573Z,21.1
2016-07-20T01:29:02.568Z,21.1
2016-07-20T01:29:12.563Z,21.1
2016-07-20T01:29:22.558Z,21.1
2016-07-20T01:29:32.555Z,21.1
2016-07-20T01:29:42.549Z,21.1
2016-07-20T01:29:52.547Z,21.1
2016-07-20T01:30:02.543Z,21.1
2016-07-20T01:30:12.537Z,21
2016-07-20T01:30:22.534Z,21.1
2016-07-20T01:30:32.530Z,21.1
2016-07-20T01:30:42.525Z,21.1
2016-07-20T01:30:52.520Z,21.1
2016-07-20T01:31:02.516Z,21.1
2016-07-20T01:31:12.511Z,21
2016-07-20T01:31:22.508Z,21.1
2016-07-20T01:31:32.504Z,21.1
2016-07-20T01:31:42.500Z,21.1
2016-07-20T01:31:52.494Z,21.1
2016-07-20T01:32:02.491Z,21.1
2016-07-20T01:32:12.485Z,21.1
2016-07-20T01:32:22.482Z,21
2016-07-20T01:32:32.477Z,21.1
2016-07-20T01:32:42.474Z,21.1
2016-07-20T01:32:52.467Z,21.1
2016-07-20T01:33:02.465Z,21.1
2016-07-20T01:33:12.459Z,21.1
2016-07-20T01:33:22.455Z,21.1
2016-07-20T01:33:32.451Z,21.1
2016-07-20T01:33:42.447Z,21.1
2016-07-20T01:33:52.443Z,21.1
2016-07-20T01:34:02.640Z,21.1
2016-07-20T01:34:12.432Z,21.1
2016-07-20T01:34:22.428Z,21.1
2016-07-20T01:34:32.425Z,21.1
2016-07-20T01:34:42.422Z,21.1
2016-07-20T01:34:52.416Z,21.1
2016-07-20T01:35:02.411Z,21.1
2016-07-20T01:35:12.408Z,21.2
2016-07-20T01:35:22.403Z,21.1
2016-07-20T01:35:32.399Z,21.1
2016-07-20T01:35:42.393Z,21
2016-07-20T01:35:52.389Z,21.1
2016-07-20T01:36:02.384Z,21.1
2016-07-20T01:36:12.381Z,21.1
2016-07-20T01:36:22.377Z,21.1
2016-07-20T01:36:32.372Z,21.1
2016-07-20T01:36:42.370Z,21.1
2016-07-20T01:36:52.363Z,21.1
2016-07-20T01:37:02.360Z,21.1
2016-07-20T01:37:12.355Z,21
2016-07-20T01:37:22.350Z,21.1
2016-07-20T01:37:32.347Z,21.1
2016-07-20T01:37:42.342Z,21.1
2016-07-20T01:37:52.337Z,21
2016-07-20T01:38:02.333Z,21.1
2016-07-20T01:38:12.330Z,21.1
2016-07-20T01:38:22.326Z,21.1
2016-07-20T01:38:32.322Z,21.1
2016-07-20T01:38:42.317Z,21.1
2016-07-20T01:38:52.312Z,21.1
2016-07-20T01:39:02.307Z,21.1
2016-07-20T01:39:12.303Z,21.1
2016-07-20T01:39:22.298Z,21.1
2016-07-20T01:39:32.294Z,21.1
2016-07-20T01:39:42.291Z,21.1
2016-07-20T01:39:52.286Z,21.1
2016-07-20T01:40:02.281Z,21.1
2016-07-20T01:40:12.278Z,21.1
2016-07-20T01:40:22.271Z,21.1
2016-07-20T01:40:32.268Z,21
2016-07-20T01:40:42.265Z,21
2016-07-20T01:40:52.259Z,21.1
2016-07-20T01:41:02.256Z,21.1
2016-07-20T01:41:12.252Z,21.1
2016-07-20T01:41:22.247Z,21.1
2016-07-20T01:41:32.244Z,21
2016-07-20T01:41:42.239Z,21.1
2016-07-20T01:41:52.234Z,21.1
2016-07-20T01:42:02.230Z,21.2
2016-07-20T01:42:12.225Z,21
2016-07-20T01:42:22.226Z,21.1
2016-07-20T01:42:32.216Z,21.1
2016-07-20T01:42:42.213Z,21.1
2016-07-20T01:42:52.209Z,21.1
2016-07-20T01:43:02.202Z,21.1
2016-07-20T01:43:12.200Z,21.1
2016-07-20T01:43:22.195Z,21.1
2016-07-20T01:43:32.190Z,21.1
2016-07-20T01:43:42.186Z,21.1
2016-07-20T01:43:52.181Z,21.1
2016-07-20T01:44:02.178Z,21.1
2016-07-20T01:44:12.173Z,21.1
2016-07-20T01:44:22.167Z,21
2016-07-20T01:44:32.163Z,21.1
2016-07-20T01:44:42.160Z,21.1
2016-07-20T01:44:52.154Z,21.1
2016-07-20T01:45:02.151Z,21.1
2016-07-20T01:45:12.148Z,21.1
2016-07-20T01:45:22.141Z,21.1
2016-07-20T01:45:32.138Z,21.1
2016-07-20T01:45:42.134Z,21.1
2016-07-20T01:45:52.130Z,21
2016-07-20T01:46:02.126Z,21.1
2016-07-20T01:46:12.121Z,21.1
2016-07-20T01:46:22.116Z,21.1
2016-07-20T01:46:32.112Z,21.1
2016-07-20T01:46:42.108Z,21
2016-07-20T01:46:52.104Z,21.1
2016-07-20T01:47:02.100Z,21.1
2016-07-20T01:47:12.095Z,21.1
2016-07-20T01:47:22.091Z,21
2016-07-20T01:47:32.085Z,21
2016-07-20T01:47:42.082Z,21.1
2016-07-20T01:47:52.078Z,21.1
2016-07-20T01:48:02.073Z,21.1
2016-07-20T01:48:12.068Z,21
2016-07-20T01:48:22.063Z,21
2016-07-20T01:48:32.059Z,21.1
2016-07-20T01:48:42.056Z,21.1
2016-07-20T01:48:52.050Z,21
2016-07-20T01:49:02.046Z,21.1
2016-07-20T01:49:12.044Z,21.1
2016-07-20T01:49:22.036Z,21
2016-07-20T01:49:32.034Z,21.1
2016-07-20T01:49:42.027Z,21
2016-07-20T01:49:52.024Z,21.1
2016-07-20T01:50:02.021Z,21.1
2016-07-20T01:50:12.017Z,21
2016-07-20T01:50:22.017Z,21
2016-07-20T01:50:32.009Z,21.1
2016-07-20T01:50:42.002Z,21
2016-07-20T01:50:51.999Z,21.1
2016-07-20T01:51:01.995Z,21.1
2016-07-20T01:51:11.988Z,21
2016-07-20T01:51:21.984Z,21.1
2016-07-20T01:51:31.983Z,21.1
2016-07-20T01:51:41.981Z,21.1
2016-07-20T01:51:51.972Z,21.1
2016-07-20T01:52:01.969Z,21.1
2016-07-20T01:52:11.963Z,21.1
2016-07-20T01:52:21.959Z,21
2016-07-20T01:52:31.956Z,21
2016-07-20T01:52:41.951Z,21
2016-07-20T01:52:51.946Z,21
2016-07-20T01:53:01.941Z,21
2016-07-20T01:53:11.938Z,21
2016-07-20T01:53:21.933Z,21.1
2016-07-20T01:53:31.930Z,21.1
2016-07-20T01:53:41.925Z,21.1
2016-07-20T01:53:51.921Z,21
2016-07-20T01:54:01.917Z,21
2016-07-20T01:54:11.912Z,21
2016-07-20T01:54:21.908Z,21
2016-07-20T01:54:31.904Z,21.1
2016-07-20T01:54:41.898Z,21.1
2016-07-20T01:54:51.894Z,21
2016-07-20T01:55:01.888Z,21.1
2016-07-20T01:55:11.886Z,21.1
2016-07-20T01:55:21.881Z,21.1
2016-07-20T01:55:31.877Z,21
2016-07-20T01:55:41.873Z,21.1
2016-07-20T01:55:51.868Z,21.1
2016-07-20T01:56:01.864Z,21.1
2016-07-20T01:56:11.859Z,21
2016-07-20T01:56:21.856Z,21
2016-07-20T01:56:31.851Z,21.1
2016-07-20T01:56:41.847Z,21.1
2016-07-20T01:56:51.841Z,21
2016-07-20T01:57:01.843Z,21
2016-07-20T01:57:11.834Z,21
2016-07-20T01:57:21.827Z,21
2016-07-20T01:57:31.826Z,21
2016-07-20T01:57:41.820Z,21
2016-07-20T01:57:51.816Z,21
2016-07-20T01:58:01.812Z,21.1
2016-07-20T01:58:11.806Z,21
2016-07-20T01:58:21.802Z,21.1
2016-07-20T01:58:31.798Z,21
2016-07-20T01:58:41.795Z,21
2016-07-20T01:58:51.788Z,21
2016-07-20T01:59:01.784Z,21
2016-07-20T01:59:11.782Z,21
2016-07-20T01:59:21.778Z,21
2016-07-20T01:59:31.771Z,21
2016-07-20T01:59:41.769Z,21
2016-07-20T01:59:51.762Z,21
2016-07-20T02:00:01.758Z,21
2016-07-20T02:00:11.755Z,21
2016-07-20T02:00:21.748Z,21
2016-07-20T02:00:31.747Z,21
2016-07-20T02:00:41.741Z,21
2016-07-20T02:00:51.738Z,21
2016-07-20T02:01:01.733Z,21
2016-07-20T02:01:11.729Z,21.1
2016-07-20T02:01:21.725Z,21
2016-07-20T02:01:31.720Z,21
2016-07-20T02:01:41.714Z,21
2016-07-20T02:01:51.711Z,21
2016-07-20T02:02:01.705Z,21
2016-07-20T02:02:11.702Z,21
2016-07-20T02:02:21.698Z,21
2016-07-20T02:02:31.695Z,21
2016-07-20T02:02:41.689Z,21
2016-07-20T02:02:51.686Z,21
2016-07-20T02:03:01.681Z,21
2016-07-20T02:03:11.676Z,21
2016-07-20T02:03:21.671Z,21
2016-07-20T02:03:31.667Z,21
2016-07-20T02:03:41.662Z,21
2016-07-20T02:03:51.659Z,20.9
2016-07-20T02:04:01.655Z,20.9
2016-07-20T02:04:11.650Z,21
2016-07-20T02:04:21.644Z,21
2016-07-20T02:04:31.642Z,21
2016-07-20T02:04:41.636Z,20.9
2016-07-20T02:04:51.631Z,21
2016-07-20T02:05:01.628Z,21
2016-07-20T02:05:11.623Z,21
2016-07-20T02:05:21.618Z,21
2016-07-20T02:05:31.616Z,21
2016-07-20T02:05:41.610Z,21
2016-07-20T02:05:51.605Z,20.9
2016-07-20T02:06:01.603Z,21.1
2016-07-20T02:06:11.598Z,21
2016-07-20T02:06:21.592Z,21
2016-07-20T02:06:31.589Z,21
2016-07-20T02:06:41.584Z,21
2016-07-20T02:06:51.579Z,21
2016-07-20T02:07:01.575Z,20.9
2016-07-20T02:07:11.572Z,21
2016-07-20T02:07:21.566Z,20.9
2016-07-20T02:07:31.563Z,21
2016-07-20T02:07:41.559Z,20.9
2016-07-20T02:07:51.556Z,20.9
2016-07-20T02:08:01.550Z,21
2016-07-20T02:08:11.546Z,21
2016-07-20T02:08:21.541Z,20.9
2016-07-20T02:08:31.536Z,21
2016-07-20T02:08:41.533Z,21
2016-07-20T02:08:51.528Z,21
2016-07-20T02:09:01.524Z,20.9
2016-07-20T02:09:11.520Z,20.9
2016-07-20T02:09:21.514Z,21
2016-07-20T02:09:31.511Z,21
2016-07-20T02:09:41.505Z,20.9
2016-07-20T02:09:51.500Z,21
2016-07-20T02:10:01.497Z,20.9
2016-07-20T02:10:11.493Z,21
2016-07-20T02:10:21.489Z,20.9
2016-07-20T02:10:31.483Z,20.9
2016-07-20T02:10:41.480Z,20.9
2016-07-20T02:10:51.475Z,21
2016-07-20T02:11:01.470Z,20.9
2016-07-20T02:11:11.467Z,20.9
2016-07-20T02:11:21.463Z,21
2016-07-20T02:11:31.457Z,21
2016-07-20T02:11:41.453Z,21
2016-07-20T02:11:51.448Z,20.9
2016-07-20T02:12:01.444Z,20.9
2016-07-20T02:12:11.440Z,21
2016-07-20T02:12:21.434Z,21
2016-07-20T02:12:31.431Z,21
2016-07-20T02:12:41.427Z,20.9
2016-07-20T02:12:51.422Z,20.9
2016-07-20T02:13:01.418Z,20.9
2016-07-20T02:13:11.414Z,20.9
2016-07-20T02:13:21.409Z,21
2016-07-20T02:13:31.405Z,20.9
2016-07-20T02:13:41.399Z,20.9
2016-07-20T02:13:51.395Z,21
2016-07-20T02:14:01.392Z,20.9
2016-07-20T02:14:11.387Z,20.9